Time;durP1;ratioP1;P1;durP2;ratioP2;P2;SDS_P1;SDS_P2;PMS_P1;PMS_P2;Temp;Humidity;BMP_temperature;BMP_pressure;BME280_temperature;BME280_humidity;BME280_pressure;Samples;Min_cycle;Max_cycle;Signal;HPM_P1;HPM_P2
2022/10/22 00:02:04;;;;;;;5.25;2.83;;;;;14.20;100306.00;;;;10321310;28;20196;-78
2022/10/22 00:07:06;;;;;;;8.70;2.70;;;;;14.20;100319.00;;;;10290468;28;20216;-78
2022/10/22 00:12:08;;;;;;;8.45;2.72;;;;;14.20;100315.00;;;;10288767;28;20287;-78
2022/10/22 00:17:11;;;;;;;4.63;2.42;;;;;14.20;100317.00;;;;10298807;28;20208;-78
2022/10/22 00:22:12;;;;;;;6.18;2.45;;;;;14.10;100321.00;;;;10317399;28;20220;-78
2022/10/22 00:27:14;;;;;;;7.38;2.72;;;;;14.20;100334.00;;;;10315205;28;20198;-78
2022/10/22 00:32:16;;;;;;;6.32;2.58;;;;;14.20;100335.00;;;;10315396;28;20181;-78
2022/10/22 00:37:18;;;;;;;8.90;2.97;;;;;14.30;100342.00;;;;10336400;28;20208;-78
2022/10/22 00:42:24;;;;;;;5.00;2.55;;;;;14.20;100336.00;;;;10308067;28;20582;-78
2022/10/22 00:47:30;;;;;;;6.72;2.42;;;;;14.20;100336.00;;;;10325765;28;20231;-78
2022/10/22 00:52:32;;;;;;;8.05;2.72;;;;;14.20;100335.00;;;;10308274;28;20215;-78
2022/10/22 00:57:35;;;;;;;9.25;2.58;;;;;14.20;100325.00;;;;10327819;28;20219;-78
2022/10/22 01:02:37;;;;;;;4.55;3.15;;;;;14.30;100334.00;;;;10341478;28;20196;-78
2022/10/22 01:07:43;;;;;;;8.02;2.25;;;;;14.30;100330.00;;;;10284850;28;20246;-78
2022/10/22 01:13:04;;;;;;;8.98;2.75;;;;;14.30;100325.00;;;;10296007;28;20224;-78
2022/10/22 01:18:08;;;;;;;5.55;2.55;;;;;14.30;100348.00;;;;10299292;28;20208;-78
2022/10/22 01:23:40;;;;;;;6.90;2.28;;;;;14.30;100343.00;;;;10334485;28;20188;-78
2022/10/22 01:29:10;;;;;;;7.00;2.40;;;;;14.20;100348.00;;;;10294433;28;20324;-78
2022/10/22 01:34:15;;;;;;;4.03;2.47;;;;;14.20;100339.00;;;;10301944;28;20281;-77
2022/10/22 01:39:19;;;;;;;14.02;3.28;;;;;14.20;100345.00;;;;10334035;28;20263;-78
2022/10/22 01:44:30;;;;;;;8.00;2.42;;;;;14.20;100344.00;;;;10323039;28;20554;-78
2022/10/22 01:49:58;;;;;;;9.27;2.93;;;;;14.30;100360.00;;;;10297845;28;20670;-78
2022/10/22 01:55:24;;;;;;;6.25;3.00;;;;;14.30;100357.00;;;;10274813;28;20299;-77
2022/10/22 02:00:26;;;;;;;8.57;2.55;;;;;14.20;100343.00;;;;10303985;28;20696;-79
2022/10/22 02:05:52;;;;;;;12.73;2.70;;;;;14.20;100351.00;;;;10287073;28;20224;-77
2022/10/22 02:10:56;;;;;;;10.40;3.00;;;;;14.20;100366.00;;;;10312295;28;20188;-78
2022/10/22 02:15:59;;;;;;;4.90;2.10;;;;;14.20;100360.00;;;;10305590;28;20203;-77
2022/10/22 02:21:01;;;;;;;9.00;2.63;;;;;14.10;100369.00;;;;10285548;28;20212;-78
2022/10/22 02:26:15;;;;;;;4.97;2.58;;;;;14.10;100372.00;;;;10290894;28;20200;-78
2022/10/22 02:31:23;;;;;;;6.57;2.65;;;;;14.10;100364.00;;;;10313979;28;20262;-77
2022/10/22 02:36:25;;;;;;;3.97;2.00;;;;;14.00;100360.00;;;;10295920;28;20651;-78
2022/10/22 02:41:27;;;;;;;9.15;3.33;;;;;13.90;100364.00;;;;10315370;28;20208;-78
2022/10/22 02:46:29;;;;;;;5.03;2.38;;;;;13.90;100365.00;;;;10313088;28;20211;-78
2022/10/22 02:51:31;;;;;;;9.63;2.50;;;;;13.80;100372.00;;;;10307422;28;20308;-77
2022/10/22 02:56:33;;;;;;;9.80;2.28;;;;;13.80;100370.00;;;;10308096;28;20200;-77
2022/10/22 03:01:35;;;;;;;9.82;2.20;;;;;13.80;100379.00;;;;10280941;28;20220;-78
2022/10/22 03:06:37;;;;;;;8.20;2.17;;;;;13.80;100394.00;;;;10331221;28;20212;-77
2022/10/22 03:11:39;;;;;;;9.77;2.25;;;;;13.80;100398.00;;;;10287430;28;20215;-78
2022/10/22 03:16:41;;;;;;;8.10;2.45;;;;;13.70;100401.00;;;;10291007;28;20203;-78
2022/10/22 03:21:49;;;;;;;6.38;2.10;;;;;13.80;100410.00;;;;10272027;28;20203;-78
2022/10/22 03:26:51;;;;;;;8.07;1.90;;;;;13.80;100404.00;;;;10310682;28;20196;-78
2022/10/22 03:31:54;;;;;;;9.75;2.55;;;;;13.80;100404.00;;;;10315949;28;20200;-78
2022/10/22 03:36:59;;;;;;;5.13;2.47;;;;;13.90;100414.00;;;;10319883;28;20202;-78
2022/10/22 03:42:01;;;;;;;7.15;1.83;;;;;13.90;100411.00;;;;10314811;28;20193;-78
2022/10/22 03:47:03;;;;;;;8.23;2.10;;;;;14.00;100412.00;;;;10301418;28;20291;-78
2022/10/22 03:52:14;;;;;;;6.20;2.60;;;;;14.00;100416.00;;;;10290510;28;20212;-78
2022/10/22 03:57:16;;;;;;;7.68;1.63;;;;;14.00;100426.00;;;;10327229;28;20722;-78
2022/10/22 04:02:18;;;;;;;5.03;2.22;;;;;14.10;100423.00;;;;10280802;28;20220;-78
2022/10/22 04:07:20;;;;;;;3.20;1.60;;;;;14.10;100427.00;;;;10283625;28;20752;-78
2022/10/22 04:12:21;;;;;;;4.55;1.92;;;;;14.00;100430.00;;;;10278642;28;20211;-77
2022/10/22 04:17:23;;;;;;;8.35;2.25;;;;;13.90;100436.00;;;;10317347;28;20639;-78
2022/10/22 04:22:25;;;;;;;6.40;2.13;;;;;13.70;100438.00;;;;10292027;28;20719;-78
2022/10/22 04:27:32;;;;;;;6.03;1.70;;;;;13.70;100431.00;;;;10273486;28;20202;-78
2022/10/22 04:32:33;;;;;;;4.28;1.75;;;;;13.70;100438.00;;;;10271837;28;20596;-78
2022/10/22 04:37:36;;;;;;;8.25;2.22;;;;;13.60;100438.00;;;;10299177;28;20216;-78
2022/10/22 04:42:38;;;;;;;6.57;1.85;;;;;13.50;100447.00;;;;10301013;28;20188;-78
2022/10/22 04:47:40;;;;;;;5.32;1.55;;;;;13.50;100446.00;;;;10305513;28;20201;-77
2022/10/22 04:52:42;;;;;;;4.23;1.90;;;;;13.40;100449.00;;;;10320113;28;20204;-78
2022/10/22 04:57:44;;;;;;;7.90;1.60;;;;;13.40;100466.00;;;;10315028;28;20244;-78
2022/10/22 05:02:50;;;;;;;6.45;1.75;;;;;13.50;100468.00;;;;10305120;28;20204;-78
2022/10/22 05:07:52;;;;;;;3.92;1.25;;;;;13.70;100476.00;;;;10302117;28;20239;-77
2022/10/22 05:12:53;;;;;;;11.93;1.70;;;;;13.90;100468.00;;;;10306591;28;20270;-78
2022/10/22 05:17:55;;;;;;;6.68;1.98;;;;;14.20;100478.00;;;;10293772;28;20666;-78
2022/10/22 05:22:57;;;;;;;5.95;1.52;;;;;14.40;100476.00;;;;10327466;28;20187;-78
2022/10/22 05:27:59;;;;;;;6.00;1.65;;;;;14.50;100467.00;;;;10311005;28;20717;-78
2022/10/22 05:33:01;;;;;;;6.97;1.52;;;;;14.60;100474.00;;;;10297222;28;20203;-78
2022/10/22 05:38:03;;;;;;;9.32;1.95;;;;;14.70;100478.00;;;;10309949;28;20268;-78
2022/10/22 05:43:05;;;;;;;5.28;2.13;;;;;14.80;100485.00;;;;10322685;28;20192;-78
2022/10/22 05:48:08;;;;;;;7.80;1.55;;;;;14.80;100495.00;;;;10312720;28;20196;-78
2022/10/22 05:53:11;;;;;;;10.00;1.98;;;;;14.90;100502.00;;;;10318040;28;20287;-77
2022/10/22 05:58:13;;;;;;;5.55;1.65;;;;;14.90;100508.00;;;;10300795;28;20299;-78
2022/10/22 06:03:15;;;;;;;5.95;1.52;;;;;15.00;100515.00;;;;10327714;28;20247;-78
2022/10/22 06:08:17;;;;;;;4.57;1.38;;;;;14.90;100520.00;;;;10307115;28;20208;-78
2022/10/22 06:13:20;;;;;;;12.50;2.00;;;;;14.70;100525.00;;;;10315632;28;20659;-78
2022/10/22 06:18:22;;;;;;;6.43;1.85;;;;;14.50;100525.00;;;;10355538;28;20212;-78
2022/10/22 06:23:23;;;;;;;6.38;1.70;;;;;14.50;100552.00;;;;10312534;28;20196;-78
2022/10/22 06:28:26;;;;;;;3.28;1.80;;;;;14.60;100542.00;;;;10301456;28;20659;-78
2022/10/22 06:33:28;;;;;;;7.15;2.13;;;;;14.70;100548.00;;;;10265170;28;20191;-77
2022/10/22 06:38:30;;;;;;;7.97;2.17;;;;;14.80;100555.00;;;;10313402;28;20220;-78
2022/10/22 06:43:32;;;;;;;11.02;2.35;;;;;14.90;100567.00;;;;10268451;28;20189;-78
2022/10/22 06:48:36;;;;;;;6.82;1.63;;;;;15.00;100575.00;;;;10324834;28;20200;-78
2022/10/22 06:53:39;;;;;;;7.07;1.70;;;;;15.20;100576.00;;;;10293584;28;20204;-77
2022/10/22 06:58:41;;;;;;;8.57;2.35;;;;;15.30;100578.00;;;;10287861;28;20259;-78
2022/10/22 07:03:43;;;;;;;13.55;2.17;;;;;15.40;100583.00;;;;10309297;28;20259;-78
2022/10/22 07:08:45;;;;;;;8.15;1.20;;;;;15.50;100609.00;;;;10324356;28;20192;-77
2022/10/22 07:13:48;;;;;;;6.38;1.40;;;;;15.60;100610.00;;;;10269363;28;20200;-78
2022/10/22 07:18:50;;;;;;;7.53;2.10;;;;;15.60;100616.00;;;;10320244;28;20196;-78
2022/10/22 07:23:52;;;;;;;6.15;1.92;;;;;15.80;100624.00;;;;10269539;28;20196;-78
2022/10/22 07:28:54;;;;;;;9.90;1.85;;;;;15.90;100621.00;;;;10294827;28;20227;-78
2022/10/22 07:33:56;;;;;;;6.82;1.30;;;;;15.90;100633.00;;;;10297422;28;20189;-77
2022/10/22 07:38:59;;;;;;;5.07;1.67;;;;;15.70;100639.00;;;;10314212;28;20239;-78
2022/10/22 07:44:01;;;;;;;7.97;1.50;;;;;15.70;100644.00;;;;10284071;28;20203;-78
2022/10/22 07:49:02;;;;;;;9.35;1.60;;;;;15.80;100654.00;;;;10268642;28;20271;-78
2022/10/22 07:54:04;;;;;;;8.15;1.60;;;;;16.00;100663.00;;;;10309355;28;20222;-79
2022/10/22 07:59:06;;;;;;;4.38;1.42;;;;;16.00;100681.00;;;;10298705;28;20244;-79
2022/10/22 08:04:10;;;;;;;4.40;1.38;;;;;16.40;100691.00;;;;10303225;28;20582;-79
2022/10/22 08:09:12;;;;;;;4.55;1.25;;;;;16.80;100707.00;;;;10343582;28;20196;-78
2022/10/22 08:14:13;;;;;;;6.50;1.88;;;;;17.30;100714.00;;;;10303953;28;20226;-79
2022/10/22 08:19:20;;;;;;;5.20;1.50;;;;;17.50;100726.00;;;;10313141;28;20214;-78
2022/10/22 08:24:22;;;;;;;4.35;1.42;;;;;17.50;100733.00;;;;10293290;28;20651;-78
2022/10/22 08:29:25;;;;;;;8.23;1.80;;;;;17.50;100738.00;;;;10327015;28;20468;-78
2022/10/22 08:34:28;;;;;;;4.15;1.60;;;;;17.50;100760.00;;;;10291685;28;20229;-78
2022/10/22 08:39:30;;;;;;;7.28;1.77;;;;;17.60;100754.00;;;;10317933;28;20212;-78
2022/10/22 08:44:53;;;;;;;5.68;1.70;;;;;17.60;100769.00;;;;10299018;28;20220;-79
2022/10/22 08:49:58;;;;;;;5.57;1.30;;;;;17.70;100773.00;;;;10336025;28;20188;-79
2022/10/22 08:55:02;;;;;;;10.98;1.90;;;;;17.80;100792.00;;;;10335802;28;20212;-79
2022/10/22 09:00:35;;;;;;;6.72;2.10;;;;;18.00;100795.00;;;;10340783;28;20208;-78
2022/10/22 09:06:17;;;;;;;8.05;1.50;;;;;18.50;100793.00;;;;10290243;28;20222;-79
2022/10/22 09:11:30;;;;;;;6.28;1.52;;;;;18.80;100802.00;;;;10326731;28;20231;-77
2022/10/22 09:16:53;;;;;;;8.32;2.17;;;;;19.00;100804.00;;;;10325385;28;20254;-79
2022/10/22 09:22:23;;;;;;;9.63;3.55;;;;;19.60;100818.00;;;;10323872;28;20212;-78
2022/10/22 09:27:29;;;;;;;6.38;1.65;;;;;19.40;100834.00;;;;10329174;28;20863;-78
2022/10/22 09:32:31;;;;;;;8.50;1.77;;;;;19.00;100838.00;;;;10296804;28;20184;-78
2022/10/22 09:37:33;;;;;;;6.13;1.40;;;;;18.90;100851.00;;;;10293401;28;20196;-78
2022/10/22 09:42:36;;;;;;;4.72;1.50;;;;;19.10;100837.00;;;;10317045;28;20208;-78
2022/10/22 09:47:40;;;;;;;8.75;1.98;;;;;18.80;100847.00;;;;10310068;28;20643;-78
2022/10/22 09:53:13;;;;;;;5.90;2.55;;;;;19.10;100846.00;;;;10323100;28;20208;-78
2022/10/22 09:58:17;;;;;;;10.27;2.53;;;;;19.70;100871.00;;;;10320761;28;20407;-78
2022/10/22 10:03:22;;;;;;;6.72;1.58;;;;;19.40;100866.00;;;;10302531;28;20251;-77
2022/10/22 10:08:24;;;;;;;7.43;1.75;;;;;20.00;100874.00;;;;10289026;28;20223;-78
2022/10/22 10:13:33;;;;;;;6.90;1.45;;;;;20.70;100873.00;;;;10307428;28;20648;-79
2022/10/22 10:18:58;;;;;;;6.72;1.70;;;;;21.20;100876.00;;;;10282469;28;20210;-79
2022/10/22 10:24:13;;;;;;;6.95;2.00;;;;;21.80;100889.00;;;;10307959;28;20210;-79
2022/10/22 10:29:35;;;;;;;7.13;2.03;;;;;21.60;100886.00;;;;10298728;28;20187;-79
2022/10/22 10:35:07;;;;;;;6.68;1.50;;;;;22.00;100893.00;;;;10314501;28;20693;-80
2022/10/22 10:40:23;;;;;;;5.70;1.58;;;;;22.30;100907.00;;;;10325414;28;20845;-79
2022/10/22 10:45:51;;;;;;;6.57;1.40;;;;;21.40;100903.00;;;;10273777;28;20205;-77
2022/10/22 10:51:13;;;;;;;4.10;1.58;;;;;20.90;100896.00;;;;10291667;28;20204;-78
2022/10/22 10:56:21;;;;;;;5.97;1.77;;;;;21.60;100884.00;;;;10337108;28;20204;-78
2022/10/22 11:01:26;;;;;;;7.82;1.88;;;;;22.60;100883.00;;;;10316341;28;20540;-78
2022/10/22 11:06:30;;;;;;;9.50;2.42;;;;;22.30;100879.00;;;;10321927;28;20267;-78
2022/10/22 11:11:40;;;;;;;3.53;1.23;;;;;22.60;100881.00;;;;10328006;28;20189;-79
2022/10/22 11:17:00;;;;;;;6.43;1.73;;;;;21.70;100882.00;;;;10303581;28;20243;-78
2022/10/22 11:22:12;;;;;;;6.07;1.42;;;;;21.00;100883.00;;;;10283166;28;20294;-78
2022/10/22 11:27:39;;;;;;;5.15;1.20;;;;;20.70;100880.00;;;;10318503;28;20815;-79
2022/10/22 11:32:44;;;;;;;3.25;1.38;;;;;20.50;100875.00;;;;10286481;28;20373;-79
2022/10/22 11:37:47;;;;;;;3.70;1.60;;;;;21.10;100881.00;;;;10304924;28;20246;-79
2022/10/22 11:42:49;;;;;;;6.38;1.60;;;;;20.80;100879.00;;;;10297399;28;20219;-77
2022/10/22 11:47:55;;;;;;;7.07;1.83;;;;;21.10;100892.00;;;;10320208;28;20578;-78
2022/10/22 11:53:01;;;;;;;8.15;1.70;;;;;20.90;100891.00;;;;10299530;28;20271;-78
2022/10/22 11:58:37;;;;;;;4.13;1.40;;;;;20.90;100896.00;;;;10324491;28;20199;-79
2022/10/22 12:03:42;;;;;;;7.18;1.80;;;;;21.80;100884.00;;;;10306867;28;20280;-78
2022/10/22 12:08:47;;;;;;;5.63;1.17;;;;;22.20;100885.00;;;;10274772;28;20207;-77
2022/10/22 12:13:52;;;;;;;6.20;1.50;;;;;21.50;100878.00;;;;10316328;28;20196;-77
2022/10/22 12:19:21;;;;;;;2.78;1.27;;;;;22.50;100882.00;;;;10315398;28;20224;-77
2022/10/22 12:24:25;;;;;;;4.13;1.25;;;;;22.10;100873.00;;;;10283381;28;20567;-76
2022/10/22 12:29:30;;;;;;;6.88;1.38;;;;;21.70;100882.00;;;;10296998;28;20555;-76
2022/10/22 12:34:32;;;;;;;3.17;1.45;;;;;21.00;100873.00;;;;10304009;28;20192;-77
2022/10/22 12:39:35;;;;;;;2.05;1.33;;;;;21.10;100866.00;;;;10293995;28;20208;-77
2022/10/22 12:44:37;;;;;;;6.55;1.60;;;;;20.70;100861.00;;;;10350132;28;20269;-76
2022/10/22 12:49:42;;;;;;;6.63;1.48;;;;;20.30;100844.00;;;;10296534;28;20188;-77
2022/10/22 12:54:48;;;;;;;4.50;1.65;;;;;20.70;100858.00;;;;10285886;28;20564;-77
2022/10/22 12:59:51;;;;;;;4.50;1.45;;;;;21.60;100844.00;;;;10309748;28;20578;-77
2022/10/22 13:05:19;;;;;;;4.68;1.42;;;;;21.90;100845.00;;;;10302970;28;20312;-76
2022/10/22 13:10:23;;;;;;;3.80;1.58;;;;;22.00;100838.00;;;;10304506;28;20202;-78
2022/10/22 13:15:34;;;;;;;3.67;1.10;;;;;22.10;100845.00;;;;10305741;28;20659;-77
2022/10/22 13:20:52;;;;;;;3.05;1.25;;;;;21.50;100847.00;;;;10291639;28;20208;-77
2022/10/22 13:26:11;;;;;;;6.20;1.30;;;;;21.00;100838.00;;;;10318263;28;20184;-77
2022/10/22 13:31:17;;;;;;;8.25;1.85;;;;;21.20;100837.00;;;;10297212;28;20195;-77
2022/10/22 13:36:19;;;;;;;3.65;1.50;;;;;20.80;100838.00;;;;10269724;28;20203;-77
2022/10/22 13:41:24;;;;;;;3.65;1.20;;;;;21.20;100833.00;;;;10321626;28;20242;-77
2022/10/22 13:46:26;;;;;;;3.25;1.08;;;;;21.40;100832.00;;;;10331550;28;20654;-77
2022/10/22 13:51:36;;;;;;;2.85;1.00;;;;;21.10;100839.00;;;;10296038;28;20632;-77
2022/10/22 13:56:38;;;;;;;3.67;1.25;;;;;20.80;100850.00;;;;10314055;28;20208;-77
2022/10/22 14:01:41;;;;;;;4.72;1.35;;;;;20.80;100852.00;;;;10283425;28;20216;-77
2022/10/22 14:06:42;;;;;;;4.25;0.98;;;;;21.10;100854.00;;;;10331737;28;20694;-76
2022/10/22 14:11:44;;;;;;;3.67;1.10;;;;;21.00;100850.00;;;;10285756;28;20288;-76
2022/10/22 14:16:46;;;;;;;6.18;1.27;;;;;21.20;100853.00;;;;10349217;28;20195;-76
2022/10/22 14:21:48;;;;;;;3.50;1.33;;;;;20.90;100846.00;;;;10287876;28;20260;-77
2022/10/22 14:26:50;;;;;;;4.95;1.30;;;;;20.60;100845.00;;;;10300224;28;20208;-76
2022/10/22 14:31:52;;;;;;;5.93;1.50;;;;;20.10;100844.00;;;;10300764;28;20283;-76
2022/10/22 14:36:54;;;;;;;3.20;1.33;;;;;20.10;100843.00;;;;10297905;28;20200;-77
2022/10/22 14:41:56;;;;;;;7.15;1.45;;;;;20.80;100819.00;;;;10329507;28;20254;-77
2022/10/22 14:46:58;;;;;;;4.95;1.23;;;;;20.60;100828.00;;;;10286116;28;20202;-77
2022/10/22 14:52:00;;;;;;;2.55;1.00;;;;;20.50;100844.00;;;;10332972;28;20220;-77
2022/10/22 14:57:03;;;;;;;7.22;1.83;;;;;20.40;100833.00;;;;10333675;28;20618;-77
2022/10/22 15:02:05;;;;;;;4.45;1.42;;;;;20.10;100847.00;;;;10333286;28;20679;-76
2022/10/22 15:07:07;;;;;;;6.40;1.67;;;;;19.70;100853.00;;;;10334096;28;20247;-77
2022/10/22 15:12:09;;;;;;;4.53;1.60;;;;;19.30;100866.00;;;;10314504;28;20225;-77
2022/10/22 15:17:11;;;;;;;4.05;1.55;;;;;19.10;100863.00;;;;10316103;28;20212;-76
2022/10/22 15:22:13;;;;;;;6.05;1.27;;;;;18.90;100860.00;;;;10308299;28;20243;-76
2022/10/22 15:27:15;;;;;;;7.55;1.67;;;;;18.80;100860.00;;;;10331961;28;20196;-76
2022/10/22 15:32:17;;;;;;;4.68;1.35;;;;;18.80;100856.00;;;;10317502;28;20635;-77
2022/10/22 15:37:20;;;;;;;4.70;1.58;;;;;18.70;100856.00;;;;10302314;28;20185;-77
2022/10/22 15:42:22;;;;;;;7.13;1.52;;;;;18.70;100862.00;;;;10289159;28;20192;-77
2022/10/22 15:47:27;;;;;;;5.93;1.67;;;;;18.70;100855.00;;;;10298972;28;20255;-77
2022/10/22 15:52:30;;;;;;;6.90;1.35;;;;;18.60;100849.00;;;;10317802;28;20291;-77
2022/10/22 15:57:32;;;;;;;4.22;1.65;;;;;18.40;100850.00;;;;10281709;28;20200;-77
2022/10/22 16:02:34;;;;;;;3.53;1.05;;;;;18.20;100843.00;;;;10298213;28;20201;-77
2022/10/22 16:07:36;;;;;;;6.93;1.60;;;;;18.10;100845.00;;;;10308676;28;20223;-77
2022/10/22 16:12:39;;;;;;;9.80;1.63;;;;;17.90;100849.00;;;;10304472;28;20192;-76
2022/10/22 16:17:42;;;;;;;3.95;1.38;;;;;17.70;100863.00;;;;10298782;28;20659;-76
2022/10/22 16:22:43;;;;;;;3.28;1.23;;;;;17.50;100868.00;;;;10323286;28;20207;-77
2022/10/22 16:27:49;;;;;;;7.75;1.85;;;;;17.30;100858.00;;;;10336785;28;20196;-78
2022/10/22 16:32:51;;;;;;;9.65;2.08;;;;;17.00;100857.00;;;;10327683;28;20199;-78
2022/10/22 16:37:53;;;;;;;3.55;2.10;;;;;16.80;100869.00;;;;10310787;28;20197;-78
2022/10/22 16:42:55;;;;;;;8.10;2.53;;;;;16.60;100862.00;;;;10316134;28;20271;-78
2022/10/22 16:47:57;;;;;;;7.07;2.45;;;;;16.40;100861.00;;;;10333902;28;20204;-79
2022/10/22 16:52:59;;;;;;;6.80;1.98;;;;;16.30;100856.00;;;;10305910;28;20812;-77
2022/10/22 16:58:00;;;;;;;7.15;3.70;;;;;16.30;100856.00;;;;10330639;28;20197;-78
2022/10/22 17:03:03;;;;;;;12.82;5.32;;;;;16.20;100854.00;;;;10316352;28;20204;-78
2022/10/22 17:08:04;;;;;;;9.80;4.63;;;;;16.10;100859.00;;;;10341545;28;20226;-79
2022/10/22 17:13:06;;;;;;;10.13;5.90;;;;;16.00;100864.00;;;;10312575;28;20188;-79
2022/10/22 17:18:08;;;;;;;7.03;3.92;;;;;15.90;100858.00;;;;10350434;28;20256;-78
2022/10/22 17:23:10;;;;;;;13.20;5.97;;;;;15.90;100865.00;;;;10324092;28;20259;-78
2022/10/22 17:28:12;;;;;;;5.63;3.30;;;;;15.80;100879.00;;;;10326662;28;20226;-78
2022/10/22 17:33:14;;;;;;;6.43;4.45;;;;;15.70;100881.00;;;;10317836;28;20256;-78
2022/10/22 17:38:16;;;;;;;11.88;6.97;;;;;15.70;100874.00;;;;10326992;28;20220;-79
2022/10/22 17:43:18;;;;;;;11.68;5.53;;;;;15.60;100878.00;;;;10296885;28;20208;-79
2022/10/22 17:48:20;;;;;;;12.15;3.80;;;;;15.80;100880.00;;;;10308748;28;20204;-79
2022/10/22 17:53:21;;;;;;;5.95;3.03;;;;;15.90;100876.00;;;;10326355;28;20196;-78
2022/10/22 17:58:23;;;;;;;9.93;5.43;;;;;16.20;100884.00;;;;10321877;28;20239;-78
2022/10/22 18:03:26;;;;;;;11.75;4.57;;;;;16.20;100887.00;;;;10323802;28;20204;-78
2022/10/22 18:08:28;;;;;;;11.77;5.38;;;;;16.10;100879.00;;;;10311616;28;20271;-79
2022/10/22 18:13:31;;;;;;;7.22;4.50;;;;;16.00;100875.00;;;;10313281;28;20188;-79
2022/10/22 18:18:34;;;;;;;10.15;3.90;;;;;15.80;100880.00;;;;10335909;28;20223;-78
2022/10/22 18:23:36;;;;;;;7.07;2.97;;;;;15.60;100886.00;;;;10344637;28;20203;-79
2022/10/22 18:28:38;;;;;;;6.38;3.15;;;;;15.40;100886.00;;;;10305639;28;20577;-78
2022/10/22 18:33:40;;;;;;;5.30;2.67;;;;;15.20;100894.00;;;;10302179;28;20279;-78
2022/10/22 18:38:42;;;;;;;7.22;2.60;;;;;15.30;100889.00;;;;10325145;28;20184;-79
2022/10/22 18:43:49;;;;;;;8.93;3.03;;;;;15.20;100882.00;;;;10297613;28;20206;-78
2022/10/22 18:48:53;;;;;;;11.02;4.10;;;;;15.10;100879.00;;;;10282577;28;20200;-78
2022/10/22 18:53:55;;;;;;;10.00;3.25;;;;;14.80;100872.00;;;;10298247;28;20208;-78
2022/10/22 18:59:20;;;;;;;8.77;3.58;;;;;14.60;100865.00;;;;10321915;28;20235;-78
2022/10/22 19:04:22;;;;;;;6.50;3.95;;;;;14.50;100869.00;;;;10316971;28;20220;-79
2022/10/22 19:09:25;;;;;;;11.00;2.92;;;;;14.50;100854.00;;;;10307519;28;20199;-79
2022/10/22 19:14:27;;;;;;;9.85;3.63;;;;;14.40;100852.00;;;;10298796;28;20219;-79
2022/10/22 19:19:29;;;;;;;10.63;3.10;;;;;14.30;100864.00;;;;10290989;28;20239;-78
2022/10/22 19:24:31;;;;;;;8.45;4.40;;;;;14.30;100856.00;;;;10289797;28;20216;-78
2022/10/22 19:29:32;;;;;;;10.07;3.47;;;;;14.30;100863.00;;;;10304407;28;20212;-79
2022/10/22 19:34:34;;;;;;;10.45;3.33;;;;;14.20;100848.00;;;;10312539;28;20199;-78
2022/10/22 19:39:36;;;;;;;8.63;4.00;;;;;14.10;100853.00;;;;10331989;28;20208;-78
2022/10/22 19:44:38;;;;;;;8.88;3.13;;;;;14.00;100853.00;;;;10280935;28;20203;-77
2022/10/22 19:49:41;;;;;;;11.68;4.07;;;;;13.90;100836.00;;;;10334307;28;20199;-79
2022/10/22 19:54:44;;;;;;;8.03;3.87;;;;;13.90;100847.00;;;;10321527;28;20204;-78
2022/10/22 19:59:46;;;;;;;9.33;3.77;;;;;13.80;100868.00;;;;10308154;28;20307;-78
2022/10/22 20:04:48;;;;;;;8.13;4.30;;;;;13.80;100870.00;;;;10264662;28;20243;-78
2022/10/22 20:09:51;;;;;;;11.52;4.60;;;;;13.90;100861.00;;;;10316070;28;20196;-79
2022/10/22 20:14:52;;;;;;;10.93;4.10;;;;;14.00;100855.00;;;;10298712;28;20191;-78
2022/10/22 20:19:55;;;;;;;11.77;4.03;;;;;14.00;100864.00;;;;10319859;28;20200;-78
2022/10/22 20:24:57;;;;;;;8.37;3.80;;;;;14.00;100870.00;;;;10312237;28;20269;-79
2022/10/22 20:29:59;;;;;;;7.97;4.40;;;;;14.10;100871.00;;;;10305205;28;20200;-79
2022/10/22 20:35:01;;;;;;;7.17;4.10;;;;;14.10;100874.00;;;;10317715;28;20192;-78
2022/10/22 20:40:03;;;;;;;11.32;5.03;;;;;14.10;100874.00;;;;10326756;28;20208;-78
2022/10/22 20:45:06;;;;;;;10.80;4.50;;;;;14.10;100866.00;;;;10336430;28;20188;-77
2022/10/22 20:50:11;;;;;;;13.67;4.50;;;;;14.10;100886.00;;;;10312503;28;20189;-78
2022/10/22 20:55:13;;;;;;;12.10;4.73;;;;;14.10;100877.00;;;;10317733;28;20211;-78
2022/10/22 21:00:20;;;;;;;10.40;4.10;;;;;14.10;100876.00;;;;10332358;28;20597;-78
2022/10/22 21:05:22;;;;;;;11.57;4.10;;;;;14.00;100868.00;;;;10343426;28;20216;-79
2022/10/22 21:10:24;;;;;;;11.73;4.30;;;;;13.90;100863.00;;;;10327101;28;20574;-78
2022/10/22 21:15:32;;;;;;;8.52;3.88;;;;;13.70;100867.00;;;;10304085;28;20215;-79
2022/10/22 21:20:34;;;;;;;10.50;4.70;;;;;13.60;100857.00;;;;10305282;28;20239;-78
2022/10/22 21:25:36;;;;;;;11.60;3.93;;;;;13.50;100852.00;;;;10312440;28;20241;-78
2022/10/22 21:30:44;;;;;;;9.23;4.00;;;;;13.50;100849.00;;;;10323451;28;20196;-78
2022/10/22 21:35:51;;;;;;;8.30;4.03;;;;;13.50;100855.00;;;;10304087;28;20227;-79
2022/10/22 21:40:53;;;;;;;11.00;3.87;;;;;13.50;100862.00;;;;10305690;28;20212;-79
2022/10/22 21:46:03;;;;;;;6.73;3.67;;;;;13.50;100861.00;;;;10331468;28;20216;-79
2022/10/22 21:51:15;;;;;;;8.90;4.57;;;;;13.50;100854.00;;;;10337160;28;20195;-78
2022/10/22 21:56:31;;;;;;;10.40;3.80;;;;;13.50;100846.00;;;;10279741;28;20207;-78
2022/10/22 22:01:34;;;;;;;5.73;4.30;;;;;13.40;100850.00;;;;10285998;28;20287;-78
2022/10/22 22:06:37;;;;;;;6.53;3.93;;;;;13.30;100834.00;;;;10296074;28;20295;-78
2022/10/22 22:11:39;;;;;;;12.80;4.03;;;;;13.20;100834.00;;;;10303473;28;20263;-79
2022/10/22 22:16:41;;;;;;;7.70;3.53;;;;;13.10;100834.00;;;;10296355;28;20198;-78
2022/10/22 22:21:42;;;;;;;10.23;4.37;;;;;13.00;100824.00;;;;10293113;28;20287;-78
2022/10/22 22:26:44;;;;;;;7.80;3.80;;;;;12.90;100837.00;;;;10317054;28;20197;-79
2022/10/22 22:31:46;;;;;;;11.50;4.07;;;;;12.80;100848.00;;;;10323229;28;20224;-79
2022/10/22 22:36:48;;;;;;;7.73;3.70;;;;;12.70;100844.00;;;;10276440;28;20261;-78
2022/10/22 22:41:50;;;;;;;8.70;4.03;;;;;12.70;100849.00;;;;10303014;28;20244;-78
2022/10/22 22:46:52;;;;;;;12.13;4.67;;;;;12.60;100837.00;;;;10310745;28;20192;-78
2022/10/22 22:51:54;;;;;;;8.33;4.20;;;;;12.60;100836.00;;;;10327217;28;20230;-79
2022/10/22 22:56:56;;;;;;;11.53;4.10;;;;;12.60;100828.00;;;;10314837;28;20195;-79
2022/10/22 23:01:58;;;;;;;8.37;5.17;;;;;12.60;100822.00;;;;10296545;28;20223;-78
2022/10/22 23:07:00;;;;;;;9.37;4.47;;;;;12.50;100821.00;;;;10292769;28;20212;-78
2022/10/22 23:12:02;;;;;;;12.43;4.30;;;;;12.50;100823.00;;;;10322754;28;20532;-78
2022/10/22 23:17:04;;;;;;;7.10;3.87;;;;;12.50;100817.00;;;;10320999;28;20215;-78
2022/10/22 23:22:06;;;;;;;7.10;4.60;;;;;12.40;100804.00;;;;10270079;28;20259;-78
2022/10/22 23:27:09;;;;;;;10.03;4.50;;;;;12.40;100800.00;;;;10312586;28;20204;-78
2022/10/22 23:32:13;;;;;;;9.53;3.90;;;;;12.40;100801.00;;;;10312510;28;20223;-79
2022/10/22 23:37:15;;;;;;;8.50;4.20;;;;;12.40;100791.00;;;;10291919;28;20215;-78
2022/10/22 23:42:16;;;;;;;10.40;4.17;;;;;12.30;100772.00;;;;10282647;28;20667;-78
2022/10/22 23:47:18;;;;;;;5.20;3.90;;;;;12.20;100780.00;;;;10285028;28;20231;-79
2022/10/22 23:52:20;;;;;;;7.90;3.83;;;;;12.20;100771.00;;;;10341218;28;20173;-79
2022/10/22 23:57:22;;;;;;;10.67;3.80;;;;;12.10;100768.00;;;;10324765;28;20246;-79
